KFWN

Sussex Airport

Sussex, New Jersey, USA
METAR KFWN 230753Z AUTO 00000KT 9SM SCT006 BKN070 OVC100 14/14 A2991 RMK AO2 RAE04 SLP128 P0000 T01390139
Observed Flight Rules
May-23 @ 07:53 UTC (56 minutes ago) Visual Flight Rules
Visibility Clouds
9 miles
  • Scattered at 600' AGL
  • Broken at 7,000' AGL
  • Overcast at 10,000' AGL
Temperatures Readings Precipitation
Current 14°C / 57°F
Dewpoint 14°C / 57°F
Humidity 100%
Altimeter 29.91" Hg
Pressure 1012.8 hPa
Elevation 133
Current Rain 0.005
METAR KFWN 230753Z AUTO 00000KT 9SM SCT006 BKN070 OVC100 14/14 A2991 RMK AO2 RAE04 SLP128 P0000 T01390139
Observed Flight Rules
May-23 @ 07:53 UTC
(56 minutes ago)
VFR
Clouds
  • Scattered at 600' AGL
  • Broken at 7,000' AGL
  • Overcast at 10,000' AGL
Temperature Dewpoint
14°C / 57°F 14°C / 57°F
Humidity Altimeter Pressure
100% 29.91" Hg 1012.8 hPa
Current Rain
0.005